KGUS

Grissom ARB Airport

Peru, Indiana, USA
METAR KGUS 121856Z AUTO 22014KT 10SM CLR 06/02 A2980 RMK AO2 SLP101 T00550020 $
Observed Flight Rules
Dec-12 @ 18:56 UTC (an hour ago) Visual Flight Rules
Wind Visibility Clouds
220° at 14 knots 10 miles
  • Clear skies
Temperatures Readings
Current 6°C / 43°F
Dewpoint 2°C / 36°F
Humidity 76%
Altimeter 29.8" Hg
Pressure 1010.1 hPa
Elevation 247
METAR KGUS 121856Z AUTO 22014KT 10SM CLR 06/02 A2980 RMK AO2 SLP101 T00550020 $
Observed Flight Rules
Dec-12 @ 18:56 UTC
(an hour ago)
VFR
Wind Visibility
220° at 14 knots 10 miles
Clouds
  • Clear skies
Temperature Dewpoint
6°C / 43°F 2°C / 36°F
Humidity Altimeter Pressure
76% 29.8" Hg 1010.1 hPa